createdAt,value
2023-03-06T00:01:23.716Z,49.71
2023-03-06T00:04:26.143Z,49.75
2023-03-06T00:07:28.450Z,49.93
2023-03-06T00:10:31.330Z,50.40
2023-03-06T00:13:35.168Z,50.32
2023-03-06T00:16:37.585Z,50.52
2023-03-06T00:19:39.936Z,50.36
2023-03-06T00:22:42.510Z,50.61
2023-03-06T00:25:46.101Z,50.20
2023-03-06T00:28:48.316Z,49.73
2023-03-06T00:31:52.401Z,50.14
2023-03-06T00:34:55.503Z,49.69
2023-03-06T00:37:59.947Z,49.61
2023-03-06T00:41:11.781Z,49.17
2023-03-06T00:44:14.067Z,49.08
2023-03-06T00:47:17.389Z,48.66
2023-03-06T00:50:19.918Z,48.23
2023-03-06T00:53:22.289Z,48.41
2023-03-06T00:56:25.291Z,48.90
2023-03-06T00:59:30.327Z,48.21
2023-03-06T01:02:32.952Z,48.52
2023-03-06T01:05:36.420Z,48.45
2023-03-06T01:08:38.765Z,48.23
2023-03-06T01:11:41.167Z,48.14
2023-03-06T01:14:43.514Z,48.12
2023-03-06T01:17:45.946Z,48.45
2023-03-06T01:20:48.756Z,48.71
2023-03-06T01:23:51.526Z,48.75
2023-03-06T01:26:53.832Z,48.10
2023-03-06T01:29:56.268Z,48.77
2023-03-06T01:32:59.364Z,48.45
2023-03-06T01:36:05.466Z,48.40
2023-03-06T01:39:07.807Z,48.25
2023-03-06T01:42:10.144Z,48.29
2023-03-06T01:45:15.611Z,48.34
2023-03-06T01:48:22.159Z,47.79
2023-03-06T01:51:27.601Z,48.16
2023-03-06T01:54:36.376Z,48.17
2023-03-06T01:57:42.380Z,48.07
2023-03-06T02:00:44.814Z,47.78
2023-03-06T02:03:49.944Z,47.27
2023-03-06T02:06:52.454Z,47.57
2023-03-06T02:09:54.736Z,47.05
2023-03-06T02:12:58.895Z,47.77
2023-03-06T02:16:01.681Z,47.91
2023-03-06T02:19:05.159Z,48.01
2023-03-06T02:22:07.586Z,47.70
2023-03-06T02:25:32.106Z,48.38
2023-03-06T02:28:35.046Z,47.82
2023-03-06T02:31:37.446Z,46.97
2023-03-06T02:34:39.763Z,47.39
2023-03-06T02:37:42.080Z,47.55
2023-03-06T02:40:48.080Z,47.60
2023-03-06T02:43:50.742Z,47.46
2023-03-06T02:46:53.083Z,47.38
2023-03-06T02:49:55.646Z,47.13
2023-03-06T02:52:58.281Z,47.61
2023-03-06T02:56:00.830Z,48.22
2023-03-06T02:59:03.380Z,48.70
2023-03-06T03:02:05.969Z,47.35
2023-03-06T03:05:09.820Z,47.93
2023-03-06T03:08:16.769Z,47.42
2023-03-06T03:11:19.179Z,47.59
2023-03-06T03:14:24.652Z,47.15
2023-03-06T03:17:27.211Z,47.84
2023-03-06T03:20:29.576Z,47.06
2023-03-06T03:23:31.911Z,47.66
2023-03-06T03:26:34.234Z,47.00
2023-03-06T03:29:45.298Z,46.53
2023-03-06T03:32:47.826Z,46.84
2023-03-06T03:35:57.835Z,46.26
2023-03-06T03:39:00.783Z,46.43
2023-03-06T03:42:03.605Z,47.39
2023-03-06T03:45:06.634Z,47.04
2023-03-06T03:48:09.076Z,46.71
2023-03-06T03:51:13.272Z,47.51
2023-03-06T03:54:20.412Z,46.96
2023-03-06T03:57:24.892Z,46.90
2023-03-06T04:00:29.315Z,47.70
2023-03-06T04:03:42.137Z,46.76
2023-03-06T04:06:45.805Z,46.14
2023-03-06T04:09:48.397Z,46.11
2023-03-06T04:12:51.197Z,46.92
2023-03-06T04:15:55.023Z,46.81
2023-03-06T04:18:58.861Z,47.54
2023-03-06T04:22:02.411Z,47.56
2023-03-06T04:25:07.252Z,47.12
2023-03-06T04:28:11.667Z,46.84
2023-03-06T04:31:14.941Z,47.05
2023-03-06T04:34:18.554Z,46.72
2023-03-06T04:37:24.644Z,46.69
2023-03-06T04:40:29.766Z,47.86
2023-03-06T04:43:32.151Z,47.11
2023-03-06T04:46:35.232Z,47.29
2023-03-06T04:49:37.642Z,48.10
2023-03-06T04:52:42.743Z,47.36
2023-03-06T04:55:45.081Z,47.40
2023-03-06T04:58:47.697Z,48.05
2023-03-06T05:01:50.325Z,47.63
2023-03-06T05:04:52.595Z,47.29
2023-03-06T05:07:55.077Z,48.25
2023-03-06T05:10:59.757Z,48.13
2023-03-06T05:14:02.131Z,47.39
2023-03-06T05:17:04.482Z,48.08
2023-03-06T05:20:09.766Z,48.04
2023-03-06T05:23:12.656Z,48.15
2023-03-06T05:26:15.755Z,49.48
2023-03-06T05:29:18.016Z,48.97
2023-03-06T05:32:20.874Z,48.32
2023-03-06T05:35:23.852Z,47.51
2023-03-06T05:38:26.265Z,49.25
2023-03-06T05:41:28.603Z,48.78
2023-03-06T05:44:33.191Z,47.03
2023-03-06T05:47:36.169Z,47.20
2023-03-06T05:50:38.857Z,48.49
2023-03-06T05:53:41.310Z,49.08
2023-03-06T05:56:44.312Z,49.26
2023-03-06T05:59:47.294Z,49.65
2023-03-06T06:02:49.644Z,47.98
2023-03-06T06:05:52.038Z,48.12
2023-03-06T06:08:54.378Z,48.04
2023-03-06T06:12:01.186Z,47.60
2023-03-06T06:15:04.356Z,48.21
2023-03-06T06:18:06.720Z,48.32
2023-03-06T06:21:11.360Z,47.46
2023-03-06T06:33:26.780Z,48.64
2023-03-06T06:36:31.664Z,48.20
2023-03-06T06:39:35.350Z,48.12
2023-03-06T06:42:40.147Z,47.61
2023-03-06T06:45:44.581Z,48.12
2023-03-06T06:48:54.950Z,48.60
2023-03-06T06:52:09.888Z,48.50
2023-03-06T06:55:14.494Z,48.30
2023-03-06T06:58:17.856Z,48.17
2023-03-06T07:01:21.323Z,48.44
2023-03-06T07:04:27.315Z,48.67
2023-03-06T07:07:30.955Z,49.55
2023-03-06T07:10:33.419Z,49.14
2023-03-06T07:13:35.789Z,49.50
2023-03-06T07:17:19.368Z,49.42
2023-03-06T07:20:21.863Z,50.26
2023-03-06T07:23:26.542Z,49.32
2023-03-06T07:26:29.020Z,47.91
2023-03-06T07:29:33.002Z,47.46
2023-03-06T07:33:39.514Z,47.92
2023-03-06T07:36:43.242Z,49.05
2023-03-06T07:39:46.154Z,50.04
2023-03-06T07:42:48.450Z,50.57
2023-03-06T07:46:19.777Z,51.14
2023-03-06T07:49:22.111Z,50.28
2023-03-06T07:52:24.651Z,50.35
2023-03-06T07:55:26.960Z,51.07
2023-03-06T07:58:29.276Z,50.76
2023-03-06T08:01:31.874Z,51.92
2023-03-06T08:04:35.304Z,50.90
2023-03-06T08:07:37.986Z,50.12
2023-03-06T08:10:40.610Z,50.38
2023-03-06T08:13:43.401Z,50.02
2023-03-06T08:16:46.424Z,51.43
2023-03-06T08:19:48.828Z,52.11
2023-03-06T08:22:52.785Z,51.17
2023-03-06T08:25:57.236Z,51.11
2023-03-06T08:29:01.083Z,50.55
2023-03-06T08:32:05.018Z,50.88
2023-03-06T08:35:11.141Z,51.79
2023-03-06T08:38:16.865Z,50.27
2023-03-06T08:41:21.080Z,50.94
2023-03-06T08:44:24.350Z,50.80
2023-03-06T08:47:26.879Z,51.42
2023-03-06T08:50:29.220Z,52.40
2023-03-06T08:53:42.778Z,52.13
2023-03-06T08:56:46.205Z,51.31
2023-03-06T08:59:49.629Z,49.83
2023-03-06T09:02:52.044Z,50.25
2023-03-06T09:05:54.377Z,50.81
2023-03-06T09:08:56.887Z,49.57
2023-03-06T09:11:59.284Z,49.62
2023-03-06T09:15:04.457Z,49.32
2023-03-06T09:18:06.925Z,48.50
2023-03-06T09:21:09.532Z,47.24
2023-03-06T09:24:11.885Z,46.52
2023-03-06T09:27:14.190Z,44.93
2023-03-06T09:30:17.510Z,44.44
2023-03-06T09:33:20.581Z,44.65
2023-03-06T09:36:23.847Z,44.89
2023-03-06T09:39:26.600Z,43.92
2023-03-06T09:42:29.283Z,43.49
2023-03-06T09:45:33.661Z,44.60
2023-03-06T09:48:55.047Z,44.37
2023-03-06T09:52:01.141Z,44.45
2023-03-06T09:55:16.473Z,44.75
2023-03-06T09:58:25.303Z,44.47
2023-03-06T10:06:56.951Z,43.94
2023-03-06T10:10:05.407Z,43.96
2023-03-06T10:13:47.363Z,42.98
2023-03-06T10:16:49.976Z,42.64
2023-03-06T10:20:15.404Z,43.44
2023-03-06T10:23:43.911Z,42.92
2023-03-06T10:26:55.475Z,43.06
2023-03-06T10:30:04.363Z,44.66
2023-03-06T10:33:45.577Z,44.67
2023-03-06T10:36:48.481Z,45.62
2023-03-06T10:39:56.228Z,44.57
2023-03-06T10:43:10.855Z,45.00
2023-03-06T10:51:25.368Z,44.55
2023-03-06T10:54:29.976Z,44.57
2023-03-06T10:57:33.520Z,44.13
2023-03-06T11:01:08.691Z,44.25
2023-03-06T11:04:16.940Z,44.94
2023-03-06T11:07:31.839Z,43.44
2023-03-06T11:10:35.568Z,43.04
2023-03-06T11:13:40.067Z,43.96
2023-03-06T11:16:53.087Z,42.72
2023-03-06T11:20:14.975Z,43.11
2023-03-06T11:23:23.473Z,42.97
2023-03-06T11:26:37.020Z,42.27
2023-03-06T11:29:48.531Z,43.07
2023-03-06T11:33:27.346Z,47.53
2023-03-06T11:36:41.019Z,42.88
2023-03-06T11:40:10.132Z,39.89
2023-03-06T11:43:44.399Z,40.52
2023-03-06T11:47:07.404Z,39.20
2023-03-06T11:50:58.019Z,40.37
2023-03-06T11:54:03.783Z,40.75
2023-03-06T11:57:18.157Z,41.02
2023-03-06T12:00:56.923Z,41.34
2023-03-06T12:04:20.110Z,40.55
2023-03-06T12:07:31.381Z,40.60
2023-03-06T12:11:12.619Z,42.10
2023-03-06T12:14:21.157Z,41.90
2023-03-06T12:17:31.075Z,42.75
2023-03-06T12:20:45.688Z,42.00
2023-03-06T12:23:55.756Z,42.45
2023-03-06T12:27:19.357Z,42.14
2023-03-06T12:30:50.779Z,42.55
2023-03-06T12:33:59.065Z,43.30
2023-03-06T12:37:04.256Z,42.27
2023-03-06T12:40:12.759Z,42.05
2023-03-06T12:43:21.107Z,42.01
2023-03-06T12:46:28.216Z,41.83
2023-03-06T12:49:34.746Z,41.45
2023-03-06T12:56:39.778Z,42.01
2023-03-06T12:59:48.023Z,41.82
2023-03-06T13:03:16.383Z,41.43
2023-03-06T13:07:03.211Z,40.88
2023-03-06T13:10:27.796Z,40.12
2023-03-06T13:14:34.234Z,39.91
2023-03-06T13:28:48.782Z,38.43
2023-03-06T13:32:14.021Z,37.61
2023-03-06T13:35:56.243Z,37.51
2023-03-06T13:39:10.054Z,38.10
2023-03-06T13:42:28.885Z,37.89
2023-03-06T13:45:44.453Z,38.26
2023-03-06T13:48:46.782Z,38.47
2023-03-06T13:52:23.530Z,38.82
2023-03-06T13:55:59.795Z,39.06
2023-03-06T13:59:32.957Z,39.08
2023-03-06T14:02:58.591Z,38.88
2023-03-06T14:06:00.923Z,38.57
2023-03-06T14:09:12.144Z,37.99
2023-03-06T14:12:25.045Z,38.73
2023-03-06T14:15:42.433Z,39.04
2023-03-06T14:18:56.937Z,41.74
2023-03-06T14:22:00.345Z,41.57
2023-03-06T14:25:43.642Z,41.28
2023-03-06T14:28:57.170Z,42.05
2023-03-06T14:32:00.914Z,41.94
2023-03-06T14:35:03.735Z,41.62
2023-03-06T14:38:08.102Z,41.89
2023-03-06T14:41:12.391Z,43.22
2023-03-06T14:44:26.629Z,44.23
2023-03-06T14:47:36.318Z,44.29
2023-03-06T14:50:40.976Z,44.48
2023-03-06T14:53:48.168Z,46.54
2023-03-06T14:56:56.961Z,47.42
2023-03-06T15:00:01.721Z,48.07
2023-03-06T15:03:07.680Z,48.05
2023-03-06T15:06:17.944Z,48.19
2023-03-06T15:09:24.733Z,49.32
2023-03-06T15:12:27.308Z,47.89
2023-03-06T15:15:31.589Z,47.74
2023-03-06T15:18:56.678Z,47.76
2023-03-06T15:22:02.587Z,48.37
2023-03-06T15:25:20.194Z,48.45
2023-03-06T15:28:40.386Z,49.52
2023-03-06T15:32:35.895Z,49.81
2023-03-06T15:39:01.961Z,49.12
2023-03-06T15:42:25.046Z,49.25
2023-03-06T15:45:31.651Z,49.40
2023-03-06T15:48:35.473Z,48.81
2023-03-06T15:51:39.827Z,49.39
2023-03-06T15:54:42.164Z,49.33
2023-03-06T15:57:52.594Z,49.71
2023-03-06T16:00:54.942Z,50.33
2023-03-06T16:03:58.191Z,49.66
2023-03-06T16:07:00.644Z,50.69
2023-03-06T16:10:06.563Z,50.04
2023-03-06T16:13:17.446Z,51.03
2023-03-06T16:16:22.510Z,51.53
2023-03-06T16:19:27.332Z,52.14
2023-03-06T16:22:30.146Z,52.09
2023-03-06T16:25:34.569Z,51.85
2023-03-06T16:28:43.418Z,51.70
2023-03-06T16:31:46.071Z,51.86
2023-03-06T16:34:48.329Z,52.13
2023-03-06T16:37:50.795Z,52.01
2023-03-06T16:40:53.092Z,52.38
2023-03-06T16:43:55.594Z,53.00
2023-03-06T16:47:03.165Z,53.30
2023-03-06T16:50:05.924Z,54.18
2023-03-06T16:53:09.296Z,54.02
2023-03-06T16:56:13.688Z,54.60
2023-03-06T16:59:15.996Z,55.06
2023-03-06T17:02:18.336Z,55.23
2023-03-06T17:05:21.177Z,55.50
2023-03-06T17:08:24.632Z,54.91
2023-03-06T17:11:27.572Z,55.10
2023-03-06T17:14:30.605Z,55.70
2023-03-06T17:17:33.099Z,56.08
2023-03-06T17:20:35.673Z,55.37
2023-03-06T17:23:38.449Z,56.28
2023-03-06T17:26:40.764Z,56.55
2023-03-06T17:29:45.071Z,56.46
2023-03-06T17:32:47.401Z,56.62
2023-03-06T17:35:49.761Z,57.13
2023-03-06T17:38:55.185Z,56.80
2023-03-06T17:41:57.534Z,57.64
2023-03-06T17:45:00.095Z,57.50
2023-03-06T17:48:02.592Z,57.29
2023-03-06T17:51:05.562Z,57.38
2023-03-06T17:54:07.880Z,57.29
2023-03-06T17:57:10.203Z,57.50
2023-03-06T18:00:13.475Z,58.00
2023-03-06T18:03:17.791Z,57.09
2023-03-06T18:06:21.075Z,57.30
2023-03-06T18:09:23.798Z,57.53
2023-03-06T18:12:26.131Z,57.25
2023-03-06T18:15:28.450Z,57.61
2023-03-06T18:18:31.121Z,57.14
2023-03-06T18:21:33.498Z,57.31
2023-03-06T18:24:36.801Z,57.81
2023-03-06T18:27:39.251Z,57.55
2023-03-06T18:30:42.394Z,57.25
2023-03-06T18:33:45.385Z,57.64
2023-03-06T18:36:48.382Z,57.33
2023-03-06T18:39:50.686Z,56.64
2023-03-06T18:42:53.818Z,57.25
2023-03-06T18:45:57.160Z,57.46
2023-03-06T18:48:59.555Z,56.85
2023-03-06T18:52:01.821Z,56.69
2023-03-06T18:55:04.421Z,56.79
2023-03-06T18:58:07.202Z,57.00
2023-03-06T19:01:09.645Z,56.47
2023-03-06T19:04:12.231Z,57.25
2023-03-06T19:07:14.527Z,57.10
2023-03-06T19:10:19.269Z,57.64
2023-03-06T19:13:21.646Z,58.80
2023-03-06T19:16:28.824Z,57.96
2023-03-06T19:19:31.097Z,59.26
2023-03-06T19:22:37.235Z,58.41
2023-03-06T19:25:39.627Z,59.11
2023-03-06T19:28:43.180Z,59.45
2023-03-06T19:31:47.852Z,60.43
2023-03-06T19:34:50.308Z,59.59
2023-03-06T19:37:53.083Z,58.88
2023-03-06T19:40:55.452Z,59.93
2023-03-06T19:44:02.314Z,60.93
2023-03-06T19:47:04.698Z,59.55
2023-03-06T19:50:07.618Z,60.16
2023-03-06T19:53:11.172Z,60.97
2023-03-06T19:56:16.643Z,61.11
2023-03-06T19:59:19.422Z,60.94
2023-03-06T20:02:26.634Z,61.50
2023-03-06T20:05:28.988Z,60.61
2023-03-06T20:08:31.213Z,61.09
2023-03-06T20:11:33.865Z,61.28
2023-03-06T20:14:36.291Z,61.33
2023-03-06T20:17:40.611Z,60.25
2023-03-06T20:20:43.372Z,60.66
2023-03-06T20:23:45.707Z,60.50
2023-03-06T20:26:49.492Z,60.30
2023-03-06T20:29:52.032Z,61.56
2023-03-06T20:32:55.928Z,61.02
2023-03-06T20:35:58.195Z,61.87
2023-03-06T20:39:01.360Z,62.19
2023-03-06T20:42:04.414Z,62.71
2023-03-06T20:45:07.214Z,61.49
2023-03-06T20:48:09.537Z,62.12
2023-03-06T20:51:17.901Z,61.97
2023-03-06T20:54:20.180Z,61.38
2023-03-06T20:57:22.469Z,61.30
2023-03-06T21:00:24.821Z,62.90
2023-03-06T21:03:27.336Z,61.76
2023-03-06T21:06:29.701Z,61.97
2023-03-06T21:09:34.558Z,62.70
2023-03-06T21:12:36.926Z,62.05
2023-03-06T21:15:40.361Z,61.11
2023-03-06T21:18:43.324Z,61.10
2023-03-06T21:21:45.619Z,60.79
2023-03-06T21:24:47.894Z,62.09
2023-03-06T21:27:50.264Z,61.33
2023-03-06T21:30:52.566Z,61.25
2023-03-06T21:33:55.295Z,61.86
2023-03-06T21:36:57.580Z,62.06
2023-03-06T21:40:00.466Z,61.41
2023-03-06T21:43:03.494Z,61.26
2023-03-06T21:46:06.142Z,61.51
2023-03-06T21:49:08.545Z,61.91
2023-03-06T21:52:10.887Z,61.22
2023-03-06T21:55:13.202Z,61.89
2023-03-06T21:58:15.550Z,61.11
2023-03-06T22:01:21.826Z,61.95
2023-03-06T22:04:24.229Z,63.00
2023-03-06T22:07:27.304Z,62.80
2023-03-06T22:10:29.585Z,61.89
2023-03-06T22:13:31.871Z,62.05
2023-03-06T22:16:34.307Z,63.00
2023-03-06T22:19:36.715Z,63.29
2023-03-06T22:22:39.002Z,62.90
2023-03-06T22:25:41.323Z,62.92
2023-03-06T22:28:43.848Z,62.98
2023-03-06T22:31:46.380Z,63.08
2023-03-06T22:34:49.944Z,62.76
2023-03-06T22:37:52.303Z,63.34
2023-03-06T22:40:58.169Z,62.83
2023-03-06T22:44:01.398Z,63.11
2023-03-06T22:47:03.711Z,62.75
2023-03-06T22:50:06.982Z,62.91
2023-03-06T22:53:09.207Z,63.62
2023-03-06T22:56:13.733Z,62.94
2023-03-06T22:59:16.035Z,63.30
2023-03-06T23:02:18.839Z,62.85
2023-03-06T23:05:21.632Z,63.51
2023-03-06T23:08:24.163Z,63.16
2023-03-06T23:11:28.093Z,63.22
2023-03-06T23:14:51.177Z,62.81
2023-03-06T23:18:12.391Z,63.25
2023-03-06T23:21:34.591Z,62.98
2023-03-06T23:24:55.363Z,62.62
2023-03-06T23:27:57.675Z,62.88
2023-03-06T23:30:59.936Z,62.90
2023-03-06T23:34:02.925Z,63.25
2023-03-06T23:37:05.211Z,62.67
2023-03-06T23:40:09.376Z,63.62
2023-03-06T23:43:11.639Z,63.44
2023-03-06T23:46:14.610Z,63.12
2023-03-06T23:49:16.933Z,62.96
2023-03-06T23:52:19.192Z,63.13
2023-03-06T23:55:21.806Z,63.13
2023-03-06T23:58:24.059Z,63.10
